Time;durP1;ratioP1;P1;durP2;ratioP2;P2;SDS_P1;SDS_P2;PMS_P1;PMS_P2;Temp;Humidity;BMP_temperature;BMP_pressure;BME280_temperature;BME280_humidity;BME280_pressure;Samples;Min_cycle;Max_cycle;Signal;HPM_P1;HPM_P2
2023/12/09 00:02:09;;;;;;;20.73;11.47;;;;;;;;;;5046317;28;20720;-71
2023/12/09 00:04:36;;;;;;;29.70;13.37;;;;;;;;;;5044890;28;20658;-70
2023/12/09 00:07:03;;;;;;;22.27;11.53;;;;;;;;;;5036560;28;20289;-69
2023/12/09 00:09:31;;;;;;;23.50;11.03;;;;;;;;;;5047824;28;20257;-72
2023/12/09 00:11:59;;;;;;;26.67;10.80;;;;;;;;;;5044232;28;20371;-71
2023/12/09 00:14:26;;;;;;;18.93;8.40;;;;;;;;;;5047466;28;20214;-69
2023/12/09 00:16:54;;;;;;;17.87;9.63;;;;;;;;;;5042227;28;20214;-70
2023/12/09 00:19:21;;;;;;;17.40;10.60;;;;;;;;;;5045759;28;20218;-72
2023/12/09 00:21:49;;;;;;;19.57;8.50;;;;;;;;;;5053816;28;20206;-71
2023/12/09 00:24:16;;;;;;;23.70;11.50;;;;;;;;;;5039761;28;20578;-71
2023/12/09 00:26:44;;;;;;;18.27;11.43;;;;;;;;;;5041766;28;20206;-72
2023/12/09 00:29:11;;;;;;;17.57;9.17;;;;;;;;;;5051301;28;20597;-74
2023/12/09 00:31:38;;;;;;;18.00;7.23;;;;;;;;;;5033676;28;20207;-71
2023/12/09 00:34:06;;;;;;;17.13;8.00;;;;;;;;;;5039936;28;20358;-71
2023/12/09 00:36:34;;;;;;;15.47;7.90;;;;;;;;;;5040121;28;20226;-70
2023/12/09 00:39:02;;;;;;;14.90;7.63;;;;;;;;;;5042838;28;20289;-69
2023/12/09 00:41:29;;;;;;;13.77;7.40;;;;;;;;;;5038705;28;20651;-69
2023/12/09 00:43:56;;;;;;;12.97;7.30;;;;;;;;;;5043125;28;20211;-70
2023/12/09 00:46:23;;;;;;;16.63;8.20;;;;;;;;;;5043694;28;20214;-74
2023/12/09 00:48:51;;;;;;;22.33;12.33;;;;;;;;;;5035196;28;20253;-68
2023/12/09 00:51:18;;;;;;;17.70;8.70;;;;;;;;;;5034495;28;20685;-68
2023/12/09 00:53:45;;;;;;;12.90;7.73;;;;;;;;;;5034331;28;20295;-70
2023/12/09 00:56:13;;;;;;;19.10;10.60;;;;;;;;;;5034203;28;20306;-69
2023/12/09 00:58:59;;;;;;;18.27;10.10;;;;;;;;;;5034230;28;20262;-69
2023/12/09 01:01:26;;;;;;;32.50;13.43;;;;;;;;;;5033869;28;20625;-67
2023/12/09 01:03:53;;;;;;;30.83;12.37;;;;;;;;;;5044401;28;20699;-70
2023/12/09 01:06:21;;;;;;;19.47;10.67;;;;;;;;;;5044187;28;20211;-70
2023/12/09 01:08:53;;;;;;;16.63;9.03;;;;;;;;;;5041435;28;21700;-71
2023/12/09 01:11:21;;;;;;;18.40;8.87;;;;;;;;;;5034528;28;20230;-70
2023/12/09 01:13:50;;;;;;;25.60;9.70;;;;;;;;;;5045790;28;20206;-69
2023/12/09 01:16:18;;;;;;;18.67;11.60;;;;;;;;;;5035923;28;20231;-70
2023/12/09 01:18:45;;;;;;;18.20;8.63;;;;;;;;;;5035013;28;20222;-70
2023/12/09 01:21:13;;;;;;;15.30;8.00;;;;;;;;;;5030858;28;20270;-70
2023/12/09 01:23:40;;;;;;;17.37;8.37;;;;;;;;;;5029260;28;20195;-71
2023/12/09 01:26:08;;;;;;;15.70;8.83;;;;;;;;;;5043565;28;20201;-70
2023/12/09 01:28:35;;;;;;;26.20;10.43;;;;;;;;;;5043304;28;20230;-70
2023/12/09 01:31:03;;;;;;;13.03;4.30;;;;;;;;;;5043230;28;20214;-71
2023/12/09 01:33:30;;;;;;;13.03;4.90;;;;;;;;;;5033701;28;20207;-70
2023/12/09 01:35:57;;;;;;;15.60;5.63;;;;;;;;;;5042526;28;20276;-71
2023/12/09 01:38:25;;;;;;;12.73;6.10;;;;;;;;;;5034424;28;20225;-69
2023/12/09 01:40:53;;;;;;;26.80;6.87;;;;;;;;;;5033731;28;20297;-70
2023/12/09 01:43:22;;;;;;;12.40;6.23;;;;;;;;;;5034233;28;20210;-69
2023/12/09 01:45:54;;;;;;;10.80;5.93;;;;;;;;;;5036358;28;20676;-70
2023/12/09 01:48:22;;;;;;;14.47;6.33;;;;;;;;;;5038443;28;20276;-70
2023/12/09 01:50:50;;;;;;;10.40;6.00;;;;;;;;;;5038758;28;20719;-69
2023/12/09 01:53:17;;;;;;;13.43;6.23;;;;;;;;;;5043641;28;20229;-70
2023/12/09 01:55:45;;;;;;;15.17;6.27;;;;;;;;;;5028210;28;20206;-71
2023/12/09 01:58:12;;;;;;;12.30;5.67;;;;;;;;;;5045885;28;20285;-70
2023/12/09 02:00:40;;;;;;;14.83;6.23;;;;;;;;;;5041247;28;20256;-70
2023/12/09 02:03:07;;;;;;;16.83;6.33;;;;;;;;;;5035968;28;20237;-68
2023/12/09 02:05:35;;;;;;;12.30;5.93;;;;;;;;;;5038860;28;20561;-70
2023/12/09 02:08:02;;;;;;;14.40;5.97;;;;;;;;;;5037121;28;20214;-70
2023/12/09 02:10:30;;;;;;;14.30;6.43;;;;;;;;;;5042610;28;20210;-71
2023/12/09 02:13:16;;;;;;;15.93;6.50;;;;;;;;;;5032528;28;20220;-70
2023/12/09 02:15:52;;;;;;;13.70;6.27;;;;;;;;;;5032877;28;20635;-70
2023/12/09 02:18:20;;;;;;;12.73;6.80;;;;;;;;;;5027976;28;20233;-70
2023/12/09 02:20:47;;;;;;;12.27;6.27;;;;;;;;;;5017164;28;20205;-71
2023/12/09 02:23:14;;;;;;;12.50;6.20;;;;;;;;;;5031244;28;20905;-69
2023/12/09 02:25:42;;;;;;;12.63;6.33;;;;;;;;;;5021217;28;20210;-70
2023/12/09 02:28:20;;;;;;;15.10;7.73;;;;;;;;;;5037494;28;20214;-71
2023/12/09 02:30:53;;;;;;;15.37;8.73;;;;;;;;;;5030157;28;20317;-70
2023/12/09 02:33:22;;;;;;;14.00;7.00;;;;;;;;;;5036911;28;20209;-70
2023/12/09 02:35:51;;;;;;;13.30;7.70;;;;;;;;;;5034746;28;20203;-70
2023/12/09 02:38:19;;;;;;;18.60;12.53;;;;;;;;;;5040560;28;20230;-70
2023/12/09 02:40:47;;;;;;;17.33;10.30;;;;;;;;;;5040587;28;20199;-70
2023/12/09 02:43:14;;;;;;;15.17;9.47;;;;;;;;;;5033955;28;20207;-70
2023/12/09 02:45:45;;;;;;;13.57;8.27;;;;;;;;;;5038731;28;20206;-70
2023/12/09 02:48:12;;;;;;;17.30;9.77;;;;;;;;;;5031583;28;20206;-70
2023/12/09 02:50:40;;;;;;;17.50;9.77;;;;;;;;;;5039454;28;20318;-70
2023/12/09 02:53:07;;;;;;;13.70;7.20;;;;;;;;;;5015693;28;20199;-70
2023/12/09 02:55:34;;;;;;;9.97;6.87;;;;;;;;;;5028454;28;20225;-71
2023/12/09 02:58:02;;;;;;;13.90;7.33;;;;;;;;;;5032291;28;20716;-70
2023/12/09 03:00:29;;;;;;;10.53;6.53;;;;;;;;;;5038021;28;20348;-70
2023/12/09 03:02:56;;;;;;;10.07;6.53;;;;;;;;;;5032617;28;20214;-70
2023/12/09 03:05:25;;;;;;;10.53;7.60;;;;;;;;;;5030756;28;20664;-70
2023/12/09 03:07:54;;;;;;;11.07;7.63;;;;;;;;;;5037355;28;20207;-70
2023/12/09 03:10:22;;;;;;;13.70;8.47;;;;;;;;;;5038557;28;20225;-70
2023/12/09 03:12:49;;;;;;;10.13;7.37;;;;;;;;;;5031031;28;20583;-70
2023/12/09 03:15:16;;;;;;;9.10;6.47;;;;;;;;;;5029357;28;23748;-71
2023/12/09 03:17:44;;;;;;;8.83;5.73;;;;;;;;;;5022870;28;20214;-70
2023/12/09 03:20:12;;;;;;;8.20;6.20;;;;;;;;;;5026968;28;20215;-71
2023/12/09 03:22:39;;;;;;;11.83;7.20;;;;;;;;;;5037003;28;20753;-70
2023/12/09 03:25:07;;;;;;;9.00;5.93;;;;;;;;;;5034130;28;20210;-70
2023/12/09 03:27:34;;;;;;;6.53;5.40;;;;;;;;;;5032115;28;20206;-71
2023/12/09 03:30:02;;;;;;;7.73;5.67;;;;;;;;;;5033167;28;20230;-70
2023/12/09 03:32:29;;;;;;;7.37;5.53;;;;;;;;;;5031765;28;20662;-71
2023/12/09 03:34:57;;;;;;;7.10;5.10;;;;;;;;;;5025394;28;20217;-70
2023/12/09 03:37:26;;;;;;;9.93;5.60;;;;;;;;;;5032992;28;20230;-71
2023/12/09 03:39:53;;;;;;;9.67;5.73;;;;;;;;;;5025823;28;20222;-69
2023/12/09 03:42:21;;;;;;;8.90;5.83;;;;;;;;;;5030113;28;20309;-71
2023/12/09 03:44:48;;;;;;;7.37;5.33;;;;;;;;;;5034264;28;20206;-70
2023/12/09 03:47:15;;;;;;;17.13;6.13;;;;;;;;;;5035749;28;20202;-70
2023/12/09 03:49:54;;;;;;;8.83;5.60;;;;;;;;;;5048773;28;20597;-69
2023/12/09 03:52:22;;;;;;;8.77;5.43;;;;;;;;;;5038791;28;20673;-70
2023/12/09 03:54:50;;;;;;;8.50;5.73;;;;;;;;;;5035573;28;20296;-70
2023/12/09 03:57:17;;;;;;;8.73;5.80;;;;;;;;;;5042780;28;20225;-71
2023/12/09 03:59:44;;;;;;;8.83;6.40;;;;;;;;;;5036922;28;20229;-69
2023/12/09 04:02:11;;;;;;;8.17;6.13;;;;;;;;;;5038050;28;20329;-70
2023/12/09 04:04:40;;;;;;;9.77;6.57;;;;;;;;;;5037347;28;20206;-70
2023/12/09 04:07:07;;;;;;;8.13;6.37;;;;;;;;;;5037385;28;20211;-71
2023/12/09 04:09:34;;;;;;;11.43;6.97;;;;;;;;;;5037775;28;20656;-70
2023/12/09 04:12:02;;;;;;;10.60;6.33;;;;;;;;;;5038329;28;20198;-71
2023/12/09 04:14:29;;;;;;;7.60;5.87;;;;;;;;;;5036969;28;20207;-70
2023/12/09 04:16:56;;;;;;;10.03;6.70;;;;;;;;;;5038723;28;20222;-71
2023/12/09 04:19:23;;;;;;;8.60;5.63;;;;;;;;;;5041205;28;20312;-70
2023/12/09 04:21:51;;;;;;;7.57;6.17;;;;;;;;;;5037608;28;20297;-74
2023/12/09 04:24:20;;;;;;;8.63;5.73;;;;;;;;;;5027984;28;20309;-71
2023/12/09 04:26:47;;;;;;;8.57;6.50;;;;;;;;;;5050946;28;20686;-71
2023/12/09 04:29:15;;;;;;;11.53;6.17;;;;;;;;;;5040490;28;20280;-71
2023/12/09 04:31:42;;;;;;;8.60;6.10;;;;;;;;;;5039598;28;20210;-71
2023/12/09 04:34:10;;;;;;;8.50;6.53;;;;;;;;;;5035255;28;20320;-73
2023/12/09 04:36:37;;;;;;;8.57;6.67;;;;;;;;;;5042745;28;20236;-71
2023/12/09 04:39:05;;;;;;;8.17;5.73;;;;;;;;;;5044644;28;20911;-72
2023/12/09 04:41:33;;;;;;;8.80;6.53;;;;;;;;;;5036539;28;20207;-70
2023/12/09 04:44:00;;;;;;;8.00;5.23;;;;;;;;;;5041799;28;20616;-73
2023/12/09 04:46:27;;;;;;;8.53;5.73;;;;;;;;;;5031892;28;20197;-72
2023/12/09 04:48:56;;;;;;;8.83;5.73;;;;;;;;;;5043664;28;20308;-71
2023/12/09 04:51:24;;;;;;;6.60;5.17;;;;;;;;;;5036363;28;20243;-73
2023/12/09 04:53:51;;;;;;;10.00;5.93;;;;;;;;;;5033648;28;20210;-71
2023/12/09 04:56:19;;;;;;;7.60;5.30;;;;;;;;;;5047061;28;20665;-69
2023/12/09 04:58:46;;;;;;;8.03;5.87;;;;;;;;;;5042753;28;20264;-71
2023/12/09 05:01:13;;;;;;;9.97;6.30;;;;;;;;;;5041622;28;20253;-72
2023/12/09 05:03:41;;;;;;;9.50;5.67;;;;;;;;;;5036205;28;20210;-70
2023/12/09 05:06:08;;;;;;;7.20;5.50;;;;;;;;;;5044944;28;20205;-69
2023/12/09 05:08:36;;;;;;;5.30;4.80;;;;;;;;;;5043461;28;20222;-69
2023/12/09 05:11:03;;;;;;;7.13;5.37;;;;;;;;;;5041763;28;20563;-71
2023/12/09 05:13:31;;;;;;;6.47;5.60;;;;;;;;;;5046204;28;20210;-70
2023/12/09 05:15:58;;;;;;;4.47;4.07;;;;;;;;;;5040557;28;20206;-70
2023/12/09 05:18:25;;;;;;;13.37;4.43;;;;;;;;;;5020100;28;20234;-71
2023/12/09 05:20:53;;;;;;;27.70;6.60;;;;;;;;;;5031504;28;20198;-70
2023/12/09 05:23:21;;;;;;;14.00;4.93;;;;;;;;;;5038019;28;20203;-71
2023/12/09 05:25:49;;;;;;;23.43;9.30;;;;;;;;;;5026223;28;20206;-68
2023/12/09 05:28:17;;;;;;;45.43;10.10;;;;;;;;;;5033743;28;20709;-69
2023/12/09 05:30:44;;;;;;;19.50;12.47;;;;;;;;;;5042093;28;20199;-68
2023/12/09 05:33:11;;;;;;;23.77;11.27;;;;;;;;;;5043578;28;20228;-70
2023/12/09 05:35:39;;;;;;;43.23;12.10;;;;;;;;;;5047295;28;20202;-71
2023/12/09 05:38:06;;;;;;;23.37;11.73;;;;;;;;;;5043886;28;20305;-69
2023/12/09 05:40:33;;;;;;;29.10;10.67;;;;;;;;;;5046771;28;20202;-70
2023/12/09 05:43:02;;;;;;;28.73;9.23;;;;;;;;;;5044154;28;20226;-68
2023/12/09 05:45:29;;;;;;;70.73;10.77;;;;;;;;;;5044069;28;20295;-69
2023/12/09 05:47:57;;;;;;;52.17;8.50;;;;;;;;;;5040195;28;21455;-69
2023/12/09 05:50:25;;;;;;;40.33;9.17;;;;;;;;;;5039714;28;20231;-70
2023/12/09 05:52:52;;;;;;;44.33;10.77;;;;;;;;;;5045855;28;20593;-71
2023/12/09 05:55:19;;;;;;;44.83;8.40;;;;;;;;;;5044487;28;20209;-70
2023/12/09 05:57:46;;;;;;;73.30;7.20;;;;;;;;;;5052019;28;20228;-70
2023/12/09 06:00:14;;;;;;;49.67;5.97;;;;;;;;;;5047060;28;20264;-70
2023/12/09 06:02:42;;;;;;;23.77;5.43;;;;;;;;;;5038783;28;20631;-69
2023/12/09 06:05:09;;;;;;;13.50;4.80;;;;;;;;;;5047142;28;20726;-71
2023/12/09 06:07:39;;;;;;;26.07;4.87;;;;;;;;;;5041436;28;20255;-71
2023/12/09 06:10:07;;;;;;;17.90;5.47;;;;;;;;;;5041272;28;20273;-71
2023/12/09 06:12:34;;;;;;;16.00;4.60;;;;;;;;;;5043307;28;20210;-69
2023/12/09 06:15:01;;;;;;;18.20;6.53;;;;;;;;;;5041609;28;20205;-71
2023/12/09 06:17:29;;;;;;;20.13;5.87;;;;;;;;;;5045868;28;20317;-71
2023/12/09 06:19:56;;;;;;;24.43;5.50;;;;;;;;;;5039694;28;20245;-70
2023/12/09 06:22:23;;;;;;;17.33;5.97;;;;;;;;;;5046449;28;20206;-70
2023/12/09 06:24:51;;;;;;;17.60;5.67;;;;;;;;;;5029861;28;21246;-69
2023/12/09 06:27:18;;;;;;;21.93;6.33;;;;;;;;;;5045970;28;20255;-69
2023/12/09 06:29:46;;;;;;;20.33;6.10;;;;;;;;;;5045389;28;20304;-69
2023/12/09 06:32:13;;;;;;;20.43;6.00;;;;;;;;;;5043569;28;20200;-70
2023/12/09 06:34:41;;;;;;;19.47;6.07;;;;;;;;;;5041114;28;20770;-71
2023/12/09 06:37:08;;;;;;;9.60;6.07;;;;;;;;;;5043654;28;20572;-68
2023/12/09 06:39:36;;;;;;;16.40;6.47;;;;;;;;;;5047741;28;20305;-71
2023/12/09 06:42:03;;;;;;;19.23;8.20;;;;;;;;;;5036093;28;20206;-71
2023/12/09 06:44:31;;;;;;;23.30;8.50;;;;;;;;;;5006579;28;20260;-72
2023/12/09 06:46:58;;;;;;;19.40;8.97;;;;;;;;;;5044058;28;20662;-70
2023/12/09 06:49:25;;;;;;;14.10;6.30;;;;;;;;;;5041266;28;20234;-70
2023/12/09 06:51:53;;;;;;;11.00;6.33;;;;;;;;;;5024258;28;20209;-69
2023/12/09 06:54:20;;;;;;;17.77;7.77;;;;;;;;;;5047530;28;20291;-69
2023/12/09 06:56:47;;;;;;;22.70;8.03;;;;;;;;;;5043265;28;20717;-70
2023/12/09 06:59:15;;;;;;;20.60;8.50;;;;;;;;;;5041047;28;20226;-69
2023/12/09 07:01:44;;;;;;;15.00;6.70;;;;;;;;;;5028163;28;20205;-70
2023/12/09 07:04:13;;;;;;;15.57;7.13;;;;;;;;;;5041819;28;20198;-70
2023/12/09 07:06:44;;;;;;;12.60;6.57;;;;;;;;;;5040942;28;20651;-69
2023/12/09 07:09:12;;;;;;;17.43;9.37;;;;;;;;;;5030728;28;20222;-67
2023/12/09 07:11:40;;;;;;;21.50;6.50;;;;;;;;;;5040477;28;20202;-70
2023/12/09 07:14:09;;;;;;;12.87;6.47;;;;;;;;;;5028483;28;20242;-69
2023/12/09 07:16:37;;;;;;;13.87;5.67;;;;;;;;;;5045031;28;20198;-70
2023/12/09 07:19:06;;;;;;;20.30;6.57;;;;;;;;;;5027425;28;20716;-69
2023/12/09 07:21:34;;;;;;;15.07;6.57;;;;;;;;;;5038208;28;20597;-69
2023/12/09 07:24:01;;;;;;;29.93;7.70;;;;;;;;;;5035275;28;20211;-71
2023/12/09 07:26:28;;;;;;;26.37;5.90;;;;;;;;;;5043766;28;20292;-70
2023/12/09 07:28:56;;;;;;;27.70;7.67;;;;;;;;;;5038868;28;20275;-70
2023/12/09 07:31:24;;;;;;;20.37;5.53;;;;;;;;;;5039267;28;20293;-69
2023/12/09 07:33:51;;;;;;;39.47;5.97;;;;;;;;;;5042039;28;20273;-70
2023/12/09 07:36:19;;;;;;;20.40;6.33;;;;;;;;;;5040177;28;20206;-70
2023/12/09 07:38:47;;;;;;;18.83;8.23;;;;;;;;;;5030790;28;20272;-70
2023/12/09 07:41:14;;;;;;;17.73;5.97;;;;;;;;;;5022951;28;20656;-70
2023/12/09 07:43:41;;;;;;;19.77;7.53;;;;;;;;;;5043251;28;20202;-69
2023/12/09 07:46:09;;;;;;;14.40;6.80;;;;;;;;;;5039749;28;20202;-70
2023/12/09 07:48:36;;;;;;;16.20;6.87;;;;;;;;;;5031423;28;20737;-70
2023/12/09 07:51:03;;;;;;;14.37;6.37;;;;;;;;;;5022863;28;20210;-70
2023/12/09 07:53:33;;;;;;;14.30;6.63;;;;;;;;;;5040259;28;20198;-70
2023/12/09 07:56:00;;;;;;;19.70;7.10;;;;;;;;;;5036599;28;20683;-70
2023/12/09 07:58:28;;;;;;;17.97;6.50;;;;;;;;;;5035633;28;20234;-71
2023/12/09 08:01:00;;;;;;;15.70;6.33;;;;;;;;;;5030405;28;20213;-71
2023/12/09 08:03:29;;;;;;;16.87;7.67;;;;;;;;;;5028797;28;20245;-69
2023/12/09 08:05:56;;;;;;;15.60;6.77;;;;;;;;;;5040250;28;20289;-73
2023/12/09 08:08:23;;;;;;;16.90;7.23;;;;;;;;;;5020047;28;20695;-72
2023/12/09 08:10:51;;;;;;;20.93;7.63;;;;;;;;;;5029587;28;20244;-74
2023/12/09 08:13:18;;;;;;;22.87;7.90;;;;;;;;;;5017551;28;20569;-70
2023/12/09 08:15:45;;;;;;;18.70;6.93;;;;;;;;;;5024572;28;20576;-72
2023/12/09 08:18:12;;;;;;;19.83;6.67;;;;;;;;;;5021358;28;20222;-70
2023/12/09 08:20:40;;;;;;;26.03;7.00;;;;;;;;;;5018079;28;20582;-72
2023/12/09 08:23:07;;;;;;;29.90;7.53;;;;;;;;;;5023268;28;20218;-70
2023/12/09 08:25:35;;;;;;;31.47;7.27;;;;;;;;;;5024061;28;20248;-71
2023/12/09 08:28:02;;;;;;;29.80;9.63;;;;;;;;;;5025342;28;20226;-72
2023/12/09 08:30:32;;;;;;;40.80;9.73;;;;;;;;;;5020368;28;20226;-71
2023/12/09 08:33:00;;;;;;;29.40;9.10;;;;;;;;;;5014201;28;20617;-69
2023/12/09 08:35:30;;;;;;;60.50;11.57;;;;;;;;;;5045238;28;20666;-69
2023/12/09 08:37:58;;;;;;;50.20;9.90;;;;;;;;;;5022541;28;20279;-69
2023/12/09 08:40:25;;;;;;;71.20;10.87;;;;;;;;;;5017609;28;20242;-71
2023/12/09 08:42:55;;;;;;;97.10;11.63;;;;;;;;;;5019384;28;20229;-70
2023/12/09 08:45:22;;;;;;;85.03;10.67;;;;;;;;;;5022457;28;20206;-71
2023/12/09 08:47:52;;;;;;;99.67;11.27;;;;;;;;;;5026190;28;20198;-71
2023/12/09 08:50:20;;;;;;;77.53;10.70;;;;;;;;;;5022185;28;20242;-69
2023/12/09 08:52:52;;;;;;;80.00;9.60;;;;;;;;;;5025546;28;20285;-73
2023/12/09 08:55:20;;;;;;;74.93;10.70;;;;;;;;;;5031446;28;20579;-71
2023/12/09 08:57:48;;;;;;;74.27;9.97;;;;;;;;;;5027764;28;20521;-71
2023/12/09 09:00:20;;;;;;;60.17;11.97;;;;;;;;;;5044995;28;20233;-70
2023/12/09 09:02:48;;;;;;;27.90;9.40;;;;;;;;;;5054102;28;20248;-70
2023/12/09 09:05:17;;;;;;;58.27;10.33;;;;;;;;;;5055570;28;20233;-70
2023/12/09 09:07:45;;;;;;;61.37;12.63;;;;;;;;;;5052002;28;20286;-70
2023/12/09 09:10:15;;;;;;;82.67;11.73;;;;;;;;;;5046748;28;20709;-69
2023/12/09 09:12:43;;;;;;;46.77;10.67;;;;;;;;;;5052641;28;20281;-69
2023/12/09 09:15:15;;;;;;;34.80;10.30;;;;;;;;;;5050365;28;20727;-68
2023/12/09 09:17:43;;;;;;;58.90;10.47;;;;;;;;;;5036582;28;20772;-69
2023/12/09 09:20:10;;;;;;;31.50;9.63;;;;;;;;;;5053345;28;20230;-68
2023/12/09 09:22:38;;;;;;;67.40;11.40;;;;;;;;;;5053657;28;20694;-70
2023/12/09 09:25:09;;;;;;;59.10;11.33;;;;;;;;;;5035331;28;20596;-69
2023/12/09 09:27:38;;;;;;;47.90;11.30;;;;;;;;;;5053196;28;20649;-68
2023/12/09 09:30:09;;;;;;;41.37;10.93;;;;;;;;;;5056435;28;20237;-68
2023/12/09 09:32:40;;;;;;;32.33;11.53;;;;;;;;;;5046023;28;20205;-69
2023/12/09 09:35:11;;;;;;;23.10;9.87;;;;;;;;;;5053063;28;20221;-71
2023/12/09 09:37:41;;;;;;;24.80;10.83;;;;;;;;;;5046658;28;20210;-70
2023/12/09 09:40:11;;;;;;;21.97;11.63;;;;;;;;;;5052091;28;20259;-70
2023/12/09 09:42:47;;;;;;;23.60;11.57;;;;;;;;;;5052276;28;20247;-72
2023/12/09 09:45:17;;;;;;;22.60;10.87;;;;;;;;;;5046229;28;20384;-69
2023/12/09 09:47:48;;;;;;;20.93;10.23;;;;;;;;;;5052511;28;20212;-70
2023/12/09 09:50:25;;;;;;;17.90;10.07;;;;;;;;;;5053685;28;20233;-70
2023/12/09 09:52:53;;;;;;;18.60;10.17;;;;;;;;;;5050941;28;20198;-70
2023/12/09 09:55:27;;;;;;;18.23;10.47;;;;;;;;;;5053318;28;20212;-70
2023/12/09 09:57:56;;;;;;;14.43;8.53;;;;;;;;;;5042950;28;20206;-71
2023/12/09 10:00:23;;;;;;;16.87;8.90;;;;;;;;;;5051893;28;20398;-70
2023/12/09 10:02:50;;;;;;;16.47;8.70;;;;;;;;;;5047647;28;20238;-70
2023/12/09 10:05:22;;;;;;;16.87;8.33;;;;;;;;;;5051525;28;20613;-68
2023/12/09 10:07:50;;;;;;;18.53;9.17;;;;;;;;;;5031655;28;20314;-68
2023/12/09 10:10:19;;;;;;;20.53;9.50;;;;;;;;;;5048087;28;20284;-71
2023/12/09 10:12:46;;;;;;;21.10;9.93;;;;;;;;;;5050271;28;20293;-68
2023/12/09 10:15:17;;;;;;;21.80;11.30;;;;;;;;;;5051197;28;20210;-69
2023/12/09 10:17:44;;;;;;;19.03;10.37;;;;;;;;;;5040928;28;20213;-69
2023/12/09 10:20:15;;;;;;;22.07;10.50;;;;;;;;;;5052169;28;20314;-71
2023/12/09 10:22:42;;;;;;;21.63;10.77;;;;;;;;;;5051547;28;20229;-71
2023/12/09 10:25:09;;;;;;;17.63;10.23;;;;;;;;;;5057565;28;20217;-71
2023/12/09 10:27:41;;;;;;;17.17;9.50;;;;;;;;;;5050892;28;20198;-69
2023/12/09 10:30:12;;;;;;;21.50;12.40;;;;;;;;;;5051413;28;20305;-71
2023/12/09 10:32:39;;;;;;;18.40;10.80;;;;;;;;;;5051547;28;20217;-69
2023/12/09 10:35:07;;;;;;;18.60;12.20;;;;;;;;;;5055057;28;20205;-70
2023/12/09 10:37:40;;;;;;;19.23;12.03;;;;;;;;;;5052823;28;20801;-70
2023/12/09 10:40:11;;;;;;;15.43;10.03;;;;;;;;;;5051772;28;20291;-68
2023/12/09 10:42:41;;;;;;;13.80;9.23;;;;;;;;;;5051898;28;20209;-70
2023/12/09 10:45:11;;;;;;;16.03;8.73;;;;;;;;;;5051921;28;20277;-69
2023/12/09 10:47:41;;;;;;;12.93;8.07;;;;;;;;;;5043790;28;20206;-69
2023/12/09 10:50:16;;;;;;;13.27;8.20;;;;;;;;;;5047417;28;20686;-68
2023/12/09 10:52:44;;;;;;;15.67;8.77;;;;;;;;;;5049442;28;20677;-71
2023/12/09 10:55:11;;;;;;;15.07;8.27;;;;;;;;;;5026197;28;20206;-70
2023/12/09 10:57:43;;;;;;;19.00;9.80;;;;;;;;;;5046518;28;20214;-69
2023/12/09 11:00:14;;;;;;;23.20;9.37;;;;;;;;;;5038761;28;20229;-69
2023/12/09 11:02:43;;;;;;;27.73;9.30;;;;;;;;;;5051515;28;20291;-68
2023/12/09 11:05:10;;;;;;;35.87;10.63;;;;;;;;;;5052056;28;20202;-68
2023/12/09 11:07:44;;;;;;;22.43;9.23;;;;;;;;;;5051270;28;20206;-71
2023/12/09 11:10:15;;;;;;;24.87;10.07;;;;;;;;;;5050817;28;20222;-69
2023/12/09 11:12:44;;;;;;;21.87;8.50;;;;;;;;;;5045343;28;20669;-70
2023/12/09 11:15:28;;;;;;;36.40;10.10;;;;;;;;;;5055543;28;20202;-70
2023/12/09 11:17:58;;;;;;;31.27;8.73;;;;;;;;;;5021777;28;20205;-68
2023/12/09 11:20:36;;;;;;;21.40;9.07;;;;;;;;;;5030237;28;20303;-68
2023/12/09 11:23:07;;;;;;;29.07;10.00;;;;;;;;;;5041226;28;20580;-69
2023/12/09 11:25:41;;;;;;;26.53;10.07;;;;;;;;;;5043762;28;20218;-71
2023/12/09 11:28:13;;;;;;;17.77;9.33;;;;;;;;;;5043988;28;20336;-70
2023/12/09 11:30:45;;;;;;;21.10;9.70;;;;;;;;;;5045913;28;20560;-68
2023/12/09 11:33:13;;;;;;;25.57;11.27;;;;;;;;;;5039460;28;20286;-68
2023/12/09 11:35:43;;;;;;;21.43;10.40;;;;;;;;;;5038548;28;20269;-74
2023/12/09 11:38:11;;;;;;;22.03;11.10;;;;;;;;;;5028111;28;20217;-72
2023/12/09 11:40:39;;;;;;;20.93;10.50;;;;;;;;;;5022587;28;20222;-72
2023/12/09 11:43:08;;;;;;;22.77;11.30;;;;;;;;;;5014001;28;20198;-73
2023/12/09 11:45:36;;;;;;;24.93;13.83;;;;;;;;;;5015581;28;20608;-72
2023/12/09 11:48:05;;;;;;;21.63;11.30;;;;;;;;;;5004720;28;20592;-72
2023/12/09 11:50:32;;;;;;;26.17;14.27;;;;;;;;;;5015438;28;20640;-74
2023/12/09 11:53:00;;;;;;;21.83;12.23;;;;;;;;;;5029029;28;20221;-74
2023/12/09 11:55:27;;;;;;;22.77;10.90;;;;;;;;;;5020265;28;20211;-70
2023/12/09 11:57:54;;;;;;;17.97;10.00;;;;;;;;;;5018538;28;20209;-72
2023/12/09 12:00:22;;;;;;;18.77;10.30;;;;;;;;;;5021166;28;20639;-71
2023/12/09 12:02:52;;;;;;;17.73;10.97;;;;;;;;;;5003876;28;20211;-74
2023/12/09 12:05:19;;;;;;;16.30;9.47;;;;;;;;;;5018341;28;20225;-69
2023/12/09 12:07:47;;;;;;;16.40;9.67;;;;;;;;;;5024346;28;20693;-70
2023/12/09 12:10:14;;;;;;;18.27;10.33;;;;;;;;;;5020202;28;20230;-71
2023/12/09 12:12:43;;;;;;;13.83;9.43;;;;;;;;;;5016860;28;20676;-72
2023/12/09 12:15:11;;;;;;;17.73;10.17;;;;;;;;;;5020173;28;20209;-70
2023/12/09 12:17:39;;;;;;;17.40;10.60;;;;;;;;;;5029543;28;20586;-70
2023/12/09 12:20:08;;;;;;;25.90;12.07;;;;;;;;;;5025141;28;20230;-71
2023/12/09 12:22:36;;;;;;;22.10;11.33;;;;;;;;;;5027672;28;20306;-72
2023/12/09 12:25:04;;;;;;;17.00;10.50;;;;;;;;;;5019254;28;23941;-70
2023/12/09 12:27:36;;;;;;;22.63;10.80;;;;;;;;;;5012111;28;20658;-75
2023/12/09 12:30:06;;;;;;;31.53;11.40;;;;;;;;;;5027045;28;20226;-70
2023/12/09 12:32:37;;;;;;;28.97;11.30;;;;;;;;;;5009536;28;20740;-72
2023/12/09 12:35:06;;;;;;;29.00;11.50;;;;;;;;;;5027862;28;20688;-73
2023/12/09 12:37:33;;;;;;;19.17;11.20;;;;;;;;;;5008698;28;20215;-71
2023/12/09 12:40:01;;;;;;;19.93;11.17;;;;;;;;;;5016338;28;20279;-73
2023/12/09 12:42:28;;;;;;;17.03;11.13;;;;;;;;;;5017053;28;20207;-74
2023/12/09 12:44:56;;;;;;;24.80;14.20;;;;;;;;;;5030040;28;20218;-75
2023/12/09 12:47:23;;;;;;;18.47;12.07;;;;;;;;;;5011831;28;20267;-72
2023/12/09 12:49:50;;;;;;;17.23;10.97;;;;;;;;;;5028723;28;20321;-73
2023/12/09 12:52:18;;;;;;;16.87;11.27;;;;;;;;;;5030788;28;20230;-72
2023/12/09 12:54:45;;;;;;;17.67;11.10;;;;;;;;;;5028938;28;20207;-75
2023/12/09 12:57:12;;;;;;;15.30;10.00;;;;;;;;;;5028731;28;20211;-73
2023/12/09 12:59:40;;;;;;;14.30;9.77;;;;;;;;;;5015467;28;20230;-73
2023/12/09 13:02:08;;;;;;;15.07;10.37;;;;;;;;;;5030645;28;20207;-72
2023/12/09 13:04:35;;;;;;;16.33;11.33;;;;;;;;;;5028766;28;20213;-72
2023/12/09 13:07:02;;;;;;;14.80;10.13;;;;;;;;;;5025214;28;20302;-73
2023/12/09 13:09:30;;;;;;;19.07;11.07;;;;;;;;;;5026604;28;20244;-75
2023/12/09 13:11:57;;;;;;;13.37;10.00;;;;;;;;;;5021216;28;20245;-72
2023/12/09 13:14:25;;;;;;;62.03;45.87;;;;;;;;;;5021417;28;20690;-74
2023/12/09 13:16:52;;;;;;;15.03;10.93;;;;;;;;;;5035834;28;20267;-71
2023/12/09 13:19:19;;;;;;;14.03;9.63;;;;;;;;;;5031086;28;20243;-73
2023/12/09 13:21:46;;;;;;;13.27;9.13;;;;;;;;;;5034114;28;20203;-75
2023/12/09 13:24:14;;;;;;;13.13;9.87;;;;;;;;;;5045060;28;20213;-71
2023/12/09 13:26:42;;;;;;;16.40;11.50;;;;;;;;;;5023357;28;20619;-71
2023/12/09 13:29:09;;;;;;;15.90;10.53;;;;;;;;;;5029333;28;20236;-73
2023/12/09 13:31:36;;;;;;;15.37;10.47;;;;;;;;;;5029593;28;20589;-73
2023/12/09 13:34:05;;;;;;;14.90;10.33;;;;;;;;;;5024502;28;20260;-71
2023/12/09 13:36:32;;;;;;;16.17;10.13;;;;;;;;;;5030444;28;20886;-71
2023/12/09 13:39:00;;;;;;;13.50;9.93;;;;;;;;;;5024669;28;20927;-72
2023/12/09 13:41:30;;;;;;;19.43;12.33;;;;;;;;;;5018000;28;20702;-72
2023/12/09 13:43:57;;;;;;;17.83;12.30;;;;;;;;;;5030814;28;20694;-73
2023/12/09 13:46:24;;;;;;;16.87;11.43;;;;;;;;;;5023026;28;20207;-72
2023/12/09 13:48:52;;;;;;;17.23;12.17;;;;;;;;;;5018322;28;21860;-72
2023/12/09 13:51:19;;;;;;;20.13;14.17;;;;;;;;;;5023139;28;20694;-77
2023/12/09 13:53:47;;;;;;;19.43;12.40;;;;;;;;;;5026471;28;20260;-72
2023/12/09 13:56:14;;;;;;;22.20;13.43;;;;;;;;;;5024760;28;20210;-71
2023/12/09 13:58:41;;;;;;;22.83;13.87;;;;;;;;;;4999064;28;20231;-73
2023/12/09 14:01:08;;;;;;;21.60;13.30;;;;;;;;;;5023093;28;20234;-71
2023/12/09 14:03:36;;;;;;;19.30;12.80;;;;;;;;;;5033076;28;20737;-73
2023/12/09 14:06:04;;;;;;;21.40;13.77;;;;;;;;;;5029356;28;20241;-75
2023/12/09 14:08:32;;;;;;;24.63;15.03;;;;;;;;;;5016358;28;20219;-74
2023/12/09 14:11:01;;;;;;;23.57;16.57;;;;;;;;;;5029399;28;20279;-72
2023/12/09 14:13:29;;;;;;;23.43;15.60;;;;;;;;;;5017743;28;20260;-76
2023/12/09 14:15:59;;;;;;;19.17;13.30;;;;;;;;;;5011339;28;20922;-72
2023/12/09 14:18:26;;;;;;;23.00;15.17;;;;;;;;;;5016184;28;20217;-72
2023/12/09 14:20:54;;;;;;;19.97;13.77;;;;;;;;;;5021282;28;20756;-73
2023/12/09 14:23:21;;;;;;;23.50;15.03;;;;;;;;;;5031972;28;22614;-71
2023/12/09 14:25:50;;;;;;;22.83;14.37;;;;;;;;;;5034550;28;20252;-71
2023/12/09 14:28:17;;;;;;;19.93;13.27;;;;;;;;;;5024342;28;20217;-70
2023/12/09 14:30:44;;;;;;;22.93;13.93;;;;;;;;;;5034903;28;20207;-73
2023/12/09 14:33:12;;;;;;;20.67;14.40;;;;;;;;;;5032617;28;20206;-74